Time;durP1;ratioP1;P1;durP2;ratioP2;P2;SDS_P1;SDS_P2;PMS_P1;PMS_P2;Temp;Humidity;BMP_temperature;BMP_pressure;BME280_temperature;BME280_humidity;BME280_pressure;Samples;Min_cycle;Max_cycle;Signal;HPM_P1;HPM_P2
2023/05/01 00:00:08;;;;;;;0.35;0.25;;;7.20;99.90;;;;;;4969303;28;20056;-80
2023/05/01 00:02:34;;;;;;;0.30;0.30;;;7.10;99.90;;;;;;4970363;28;20122;-79
2023/05/01 00:05:01;;;;;;;0.45;0.45;;;7.00;99.90;;;;;;4970531;28;20053;-80
2023/05/01 00:07:30;;;;;;;0.30;0.30;;;6.90;99.90;;;;;;4969686;28;20134;-80
2023/05/01 00:09:56;;;;;;;0.15;0.10;;;7.00;99.90;;;;;;4970210;28;20057;-80
2023/05/01 00:12:22;;;;;;;8.10;2.40;;;6.90;99.90;;;;;;4970425;28;20078;-80
2023/05/01 00:14:48;;;;;;;1.10;0.90;;;6.80;1.00;;;;;;4970213;28;20361;-79
2023/05/01 00:17:14;;;;;;;0.25;0.20;;;6.80;1.00;;;;;;4971303;28;20046;-80
2023/05/01 00:19:40;;;;;;;0.05;0.05;;;6.70;23.60;;;;;;4970451;28;20047;-80
2023/05/01 00:22:06;;;;;;;0.63;0.63;;;6.70;1.00;;;;;;4972912;28;20463;-80
2023/05/01 00:24:32;;;;;;;0.20;0.20;;;6.60;99.90;;;;;;4973120;28;20069;-80
2023/05/01 00:26:58;;;;;;;1.20;1.10;;;6.50;99.90;;;;;;4973092;28;20132;-80
2023/05/01 00:29:24;;;;;;;1.05;0.30;;;6.50;99.90;;;;;;4972312;28;20497;-80
2023/05/01 00:31:49;;;;;;;0.40;0.32;;;6.50;99.90;;;;;;4970966;28;20058;-79
2023/05/01 00:34:15;;;;;;;0.22;0.22;;;7.00;99.90;;;;;;4972725;28;20047;-80
2023/05/01 00:36:41;;;;;;;0.00;0.00;;;6.20;99.90;;;;;;4972868;28;20066;-82
2023/05/01 00:39:07;;;;;;;0.40;0.40;;;6.70;99.90;;;;;;4971786;28;20066;-80
2023/05/01 00:41:34;;;;;;;0.10;0.10;;;6.50;99.90;;;;;;4972392;28;20081;-80
2023/05/01 00:43:59;;;;;;;0.65;0.65;;;6.10;99.90;;;;;;4972623;28;20089;-80
2023/05/01 00:46:27;;;;;;;0.55;0.55;;;6.00;99.90;;;;;;4972926;28;20051;-80
2023/05/01 00:48:53;;;;;;;0.08;0.08;;;5.90;99.90;;;;;;4972418;28;20068;-80
2023/05/01 00:51:19;;;;;;;0.10;0.10;;;5.90;99.90;;;;;;4972510;28;20046;-80
2023/05/01 00:53:45;;;;;;;0.10;0.10;;;5.80;99.90;;;;;;4972384;28;20043;-80
2023/05/01 00:56:11;;;;;;;0.10;0.10;;;5.70;99.90;;;;;;4972792;28;20077;-80
2023/05/01 00:58:38;;;;;;;0.28;0.20;;;5.70;99.90;;;;;;4971203;28;20497;-80
2023/05/01 01:01:04;;;;;;;0.05;0.05;;;5.60;99.90;;;;;;4973088;28;20092;-80
2023/05/01 01:03:30;;;;;;;0.52;0.52;;;5.60;99.90;;;;;;4974341;28;20053;-80
2023/05/01 01:06:22;;;;;;;0.10;0.10;;;5.50;99.90;;;;;;4975518;28;20058;-80
2023/05/01 01:08:47;;;;;;;0.00;0.00;;;5.40;99.90;;;;;;4974467;28;20050;-81
2023/05/01 01:11:35;;;;;;;0.00;0.00;;;5.30;99.90;;;;;;4975337;28;20069;-81
2023/05/01 01:14:12;;;;;;;3.95;1.55;;;5.20;99.90;;;;;;4975991;28;20455;-81
2023/05/01 01:17:00;;;;;;;0.00;0.00;;;5.20;99.90;;;;;;4976208;28;20409;-80
2023/05/01 01:20:07;;;;;;;0.17;0.17;;;5.10;99.90;;;;;;4975196;28;20098;-80
2023/05/01 01:22:38;;;;;;;9.75;1.25;;;5.10;99.90;;;;;;4975043;28;20063;-80
2023/05/01 01:25:24;;;;;;;0.80;0.80;;;5.10;99.90;;;;;;4974733;28;20110;-80
2023/05/01 01:28:08;;;;;;;0.00;0.00;;;5.00;99.90;;;;;;4975789;28;20055;-80
2023/05/01 01:30:43;;;;;;;0.30;0.30;;;5.10;99.90;;;;;;4975079;28;20074;-80
2023/05/01 01:33:15;;;;;;;0.00;0.00;;;5.10;99.90;;;;;;4975771;28;20065;-80
2023/05/01 01:35:48;;;;;;;0.68;0.68;;;5.10;99.90;;;;;;4975360;28;20545;-81
2023/05/01 01:38:22;;;;;;;0.38;0.32;;;5.10;99.90;;;;;;4974615;28;20090;-80
2023/05/01 01:41:03;;;;;;;0.00;0.00;;;5.00;99.90;;;;;;4974821;28;20082;-80
2023/05/01 01:43:36;;;;;;;0.00;0.00;;;5.10;99.90;;;;;;4975218;28;20058;-80
2023/05/01 01:46:04;;;;;;;0.38;0.38;;;5.00;99.90;;;;;;4975725;28;20077;-81
2023/05/01 01:48:35;;;;;;;0.28;0.28;;;5.00;99.90;;;;;;4975298;28;20062;-80
2023/05/01 01:51:08;;;;;;;0.40;0.40;;;5.00;99.90;;;;;;4975902;28;20050;-80
2023/05/01 01:53:36;;;;;;;0.75;0.45;;;5.00;99.90;;;;;;4982709;28;20099;-80
2023/05/01 01:56:05;;;;;;;0.10;0.08;;;5.00;99.90;;;;;;4983542;28;20066;-80
2023/05/01 01:58:35;;;;;;;0.05;0.05;;;5.00;99.90;;;;;;4977705;28;20571;-81
2023/05/01 02:01:02;;;;;;;0.10;0.10;;;4.90;99.90;;;;;;4976089;28;20039;-80
2023/05/01 02:03:29;;;;;;;0.13;0.13;;;4.90;99.90;;;;;;4975924;28;20059;-81
2023/05/01 02:05:57;;;;;;;0.20;0.20;;;4.90;99.90;;;;;;4974782;28;20122;-82
2023/05/01 02:08:24;;;;;;;1.13;0.82;;;4.90;99.90;;;;;;4975397;28;20053;-81
2023/05/01 02:10:51;;;;;;;1.13;0.40;;;4.90;99.90;;;;;;4975628;28;20038;-81
2023/05/01 02:13:19;;;;;;;2.22;0.90;;;4.90;99.90;;;;;;4973128;28;20043;-80
2023/05/01 02:15:46;;;;;;;0.35;0.35;;;4.80;99.90;;;;;;4975185;28;20122;-81
2023/05/01 02:18:13;;;;;;;3.20;1.45;;;4.80;99.90;;;;;;4974792;28;20047;-81
2023/05/01 02:20:41;;;;;;;0.10;0.10;;;4.70;99.90;;;;;;4973432;28;20112;-81
2023/05/01 02:23:09;;;;;;;0.30;0.30;;;4.70;99.90;;;;;;4974838;28;20055;-81
2023/05/01 02:25:38;;;;;;;0.00;0.00;;;4.60;99.90;;;;;;4974416;28;20043;-80
2023/05/01 02:28:11;;;;;;;0.30;0.30;;;4.60;99.90;;;;;;4975024;28;20038;-81
2023/05/01 02:30:38;;;;;;;0.22;0.22;;;4.50;99.90;;;;;;4974203;28;20532;-81
2023/05/01 02:33:06;;;;;;;0.38;0.38;;;4.50;99.90;;;;;;4973745;28;20510;-81
2023/05/01 02:35:37;;;;;;;0.00;0.00;;;4.40;99.90;;;;;;4974408;28;20053;-80
2023/05/01 02:38:03;;;;;;;0.00;0.00;;;4.40;99.90;;;;;;4967087;28;20447;-80
2023/05/01 02:40:30;;;;;;;0.00;0.00;;;4.30;99.90;;;;;;4971927;28;20038;-81
2023/05/01 02:42:59;;;;;;;0.13;0.03;;;4.30;99.90;;;;;;4974238;28;20051;-81
2023/05/01 02:45:27;;;;;;;0.35;0.35;;;4.20;99.90;;;;;;4974793;28;20049;-80
2023/05/01 02:47:56;;;;;;;0.20;0.20;;;4.20;99.90;;;;;;4975098;28;20041;-80
2023/05/01 02:50:23;;;;;;;0.00;0.00;;;4.20;99.90;;;;;;4974529;28;20643;-80
2023/05/01 02:52:50;;;;;;;0.00;0.00;;;4.30;99.90;;;;;;4974557;28;20065;-81
2023/05/01 02:55:17;;;;;;;0.10;0.10;;;4.20;99.90;;;;;;4975188;28;20047;-81
2023/05/01 02:57:42;;;;;;;3.22;0.60;;;4.20;99.90;;;;;;4974255;28;20054;-81
2023/05/01 03:00:12;;;;;;;1.85;1.40;;;4.20;99.90;;;;;;4975111;28;20413;-81
2023/05/01 03:02:39;;;;;;;0.80;0.80;;;4.10;99.90;;;;;;4974685;28;20058;-81
2023/05/01 03:05:05;;;;;;;0.43;0.43;;;4.10;99.90;;;;;;4974144;28;20059;-80
2023/05/01 03:07:34;;;;;;;0.30;0.30;;;4.10;99.90;;;;;;4974254;28;20085;-81
2023/05/01 03:10:09;;;;;;;0.00;0.00;;;4.00;99.90;;;;;;4973259;28;20050;-81
2023/05/01 03:12:35;;;;;;;0.25;0.15;;;4.00;99.90;;;;;;4973236;28;20054;-81
2023/05/01 03:15:01;;;;;;;0.10;0.10;;;3.90;99.90;;;;;;4974516;28;20084;-80
2023/05/01 03:17:26;;;;;;;0.65;0.63;;;3.90;99.90;;;;;;4973369;28;20047;-80
2023/05/01 03:19:52;;;;;;;0.75;0.30;;;4.00;99.90;;;;;;4973793;28;20039;-81
2023/05/01 03:22:18;;;;;;;1.20;0.65;;;4.00;99.90;;;;;;4973762;28;20059;-80
2023/05/01 03:24:43;;;;;;;0.20;0.20;;;4.00;99.90;;;;;;4973625;28;20158;-80
2023/05/01 03:27:09;;;;;;;0.00;0.00;;;4.00;99.90;;;;;;4973967;28;20050;-81
2023/05/01 03:29:38;;;;;;;0.30;0.28;;;3.90;99.90;;;;;;4973006;28;20511;-81
2023/05/01 03:32:04;;;;;;;0.60;0.38;;;3.90;99.90;;;;;;4973403;28;20054;-80
2023/05/01 03:34:30;;;;;;;0.00;0.00;;;3.90;99.90;;;;;;4973989;28;20051;-80
2023/05/01 03:36:56;;;;;;;0.35;0.30;;;3.90;99.90;;;;;;4970634;28;20043;-80
2023/05/01 03:39:22;;;;;;;0.57;0.57;;;3.70;99.90;;;;;;4973001;28;20047;-80
2023/05/01 03:41:47;;;;;;;0.30;0.30;;;3.70;99.90;;;;;;4973407;28;20047;-80
2023/05/01 03:44:13;;;;;;;0.10;0.10;;;3.70;99.90;;;;;;4973416;28;20053;-80
2023/05/01 03:46:39;;;;;;;0.30;0.30;;;3.60;99.90;;;;;;4973549;28;20035;-80
2023/05/01 03:49:05;;;;;;;0.25;0.25;;;3.60;99.90;;;;;;4973526;28;20050;-80
2023/05/01 03:51:31;;;;;;;0.68;0.68;;;3.60;99.90;;;;;;4974418;28;20047;-81
2023/05/01 03:53:57;;;;;;;0.20;0.20;;;3.60;99.90;;;;;;4974075;28;20058;-81
2023/05/01 03:56:27;;;;;;;0.13;0.13;;;3.60;99.90;;;;;;4973550;28;20137;-81
2023/05/01 03:58:53;;;;;;;0.00;0.00;;;3.60;99.90;;;;;;4972654;28;20157;-80
2023/05/01 04:01:19;;;;;;;0.60;0.57;;;3.70;99.90;;;;;;4973639;28;20066;-80
2023/05/01 04:03:45;;;;;;;0.00;0.00;;;3.70;99.90;;;;;;4973065;28;20047;-80
2023/05/01 04:06:11;;;;;;;1.55;1.42;;;3.70;99.90;;;;;;4973159;28;20130;-80
2023/05/01 04:08:37;;;;;;;0.00;0.00;;;3.80;99.90;;;;;;4972733;28;20057;-80
2023/05/01 04:11:03;;;;;;;0.05;0.05;;;3.80;99.90;;;;;;4972897;28;20498;-81
2023/05/01 04:13:29;;;;;;;0.22;0.22;;;3.80;99.90;;;;;;4972632;28;20058;-80
2023/05/01 04:15:56;;;;;;;0.20;0.20;;;3.80;99.90;;;;;;4972837;28;20632;-80
2023/05/01 04:18:22;;;;;;;0.75;0.68;;;3.80;99.90;;;;;;4972766;28;20058;-80
2023/05/01 04:20:48;;;;;;;0.00;0.00;;;4.30;99.90;;;;;;4972466;28;20043;-80
2023/05/01 04:23:13;;;;;;;0.08;0.08;;;4.00;99.90;;;;;;4972736;28;20077;-80
2023/05/01 04:25:39;;;;;;;0.35;0.35;;;4.10;99.90;;;;;;4973254;28;20078;-80
2023/05/01 04:28:04;;;;;;;0.10;0.10;;;4.00;99.90;;;;;;4973088;28;20112;-81
2023/05/01 04:30:30;;;;;;;0.68;0.68;;;4.00;99.90;;;;;;4973601;28;20082;-81
2023/05/01 04:32:57;;;;;;;0.30;0.30;;;4.10;99.90;;;;;;4972311;28;20120;-81
2023/05/01 04:35:24;;;;;;;0.13;0.13;;;4.10;99.90;;;;;;4972654;28;20074;-81
2023/05/01 04:37:50;;;;;;;0.10;0.10;;;4.20;99.90;;;;;;4975703;28;20039;-81
2023/05/01 04:40:16;;;;;;;1.85;0.95;;;4.30;99.90;;;;;;4976419;28;20582;-80
2023/05/01 04:42:42;;;;;;;0.35;0.35;;;4.50;99.90;;;;;;4976723;28;20035;-80
2023/05/01 04:45:08;;;;;;;1.23;0.63;;;4.60;99.90;;;;;;4976224;28;20071;-82
2023/05/01 04:47:34;;;;;;;0.50;0.50;;;4.70;99.90;;;;;;4974769;28;20132;-80
2023/05/01 04:50:00;;;;;;;0.43;0.40;;;4.80;99.90;;;;;;4971958;28;20062;-80
2023/05/01 04:52:25;;;;;;;0.35;0.35;;;4.90;99.90;;;;;;4973674;28;20070;-80
2023/05/01 04:54:51;;;;;;;1.30;1.23;;;5.00;99.90;;;;;;4973867;28;20047;-80
2023/05/01 04:57:17;;;;;;;0.20;0.20;;;5.10;99.90;;;;;;4973566;28;20047;-80
2023/05/01 04:59:43;;;;;;;0.40;0.35;;;5.20;99.90;;;;;;4973455;28;20059;-79
2023/05/01 05:02:08;;;;;;;0.00;0.00;;;5.30;99.90;;;;;;4973032;28;20043;-80
2023/05/01 05:04:34;;;;;;;1.20;1.10;;;5.40;99.90;;;;;;4972806;28;20054;-79
2023/05/01 05:07:00;;;;;;;0.17;0.17;;;5.50;99.90;;;;;;4971650;28;20085;-80
2023/05/01 05:09:25;;;;;;;0.10;0.10;;;5.60;99.90;;;;;;4972542;28;20054;-80
2023/05/01 05:11:51;;;;;;;1.35;0.52;;;5.70;99.90;;;;;;4973272;28;20061;-80
2023/05/01 05:14:17;;;;;;;0.98;0.80;;;5.80;99.90;;;;;;4973224;28;20055;-79
2023/05/01 05:16:42;;;;;;;0.55;0.55;;;5.90;99.90;;;;;;4974201;28;20065;-79
2023/05/01 05:19:08;;;;;;;0.00;0.00;;;6.10;99.90;;;;;;4973510;28;20050;-79
2023/05/01 05:21:34;;;;;;;0.10;0.05;;;6.30;99.90;;;;;;4973459;28;20522;-79
2023/05/01 05:24:00;;;;;;;1.65;1.35;;;6.40;99.90;;;;;;4973619;28;20121;-80
2023/05/01 05:26:26;;;;;;;0.70;0.70;;;6.60;99.90;;;;;;4973822;28;20046;-80
2023/05/01 05:28:52;;;;;;;1.67;0.95;;;6.80;99.90;;;;;;4972452;28;20124;-80
2023/05/01 05:31:18;;;;;;;3.65;2.08;;;7.00;99.90;;;;;;4972676;28;20631;-80
2023/05/01 05:33:43;;;;;;;0.85;0.85;;;7.00;92.60;;;;;;4972140;28;20047;-80
2023/05/01 05:36:09;;;;;;;0.13;0.13;;;7.20;14.30;;;;;;4972992;28;20046;-80
2023/05/01 05:38:35;;;;;;;0.75;0.65;;;7.20;1.00;;;;;;4972224;28;20090;-80
2023/05/01 05:41:01;;;;;;;1.25;0.35;;;7.70;99.90;;;;;;4971806;28;20046;-81
2023/05/01 05:43:27;;;;;;;0.20;0.20;;;7.40;33.00;;;;;;4972457;28;20080;-80
2023/05/01 05:45:57;;;;;;;0.35;0.35;;;7.40;99.90;;;;;;4971426;28;20114;-79
2023/05/01 05:48:23;;;;;;;0.52;0.52;;;7.40;99.90;;;;;;4972617;28;20050;-80
2023/05/01 05:50:52;;;;;;;2.50;1.33;;;7.60;99.90;;;;;;4972517;28;20460;-80
2023/05/01 05:53:18;;;;;;;0.00;0.00;;;7.70;99.90;;;;;;4972598;28;20057;-80
2023/05/01 05:55:46;;;;;;;2.00;0.93;;;7.90;41.50;;;;;;4971900;28;20062;-80
2023/05/01 05:58:13;;;;;;;0.52;0.52;;;7.90;99.90;;;;;;4971542;28;20035;-80
2023/05/01 06:00:40;;;;;;;0.98;0.82;;;8.00;1.00;;;;;;4973765;28;20050;-79
2023/05/01 06:03:06;;;;;;;1.38;1.05;;;8.30;99.90;;;;;;4973094;28;20089;-80
2023/05/01 06:05:33;;;;;;;0.08;0.08;;;8.50;99.90;;;;;;4972083;28;20049;-80
2023/05/01 06:07:58;;;;;;;3.53;1.75;;;8.70;99.90;;;;;;4972656;28;20051;-80
2023/05/01 06:10:24;;;;;;;0.35;0.35;;;8.70;1.00;;;;;;4974721;28;20050;-81
2023/05/01 06:12:50;;;;;;;1.00;0.60;;;9.10;1.00;;;;;;4975028;28;20471;-80
2023/05/01 06:15:15;;;;;;;1.13;0.55;;;9.50;99.90;;;;;;4974248;28;20039;-80
2023/05/01 06:17:44;;;;;;;0.77;0.77;;;9.90;1.00;;;;;;4963881;28;20059;-80
2023/05/01 06:20:10;;;;;;;0.20;0.20;;;10.30;44.90;;;;;;4954696;28;20035;-80
2023/05/01 06:22:36;;;;;;;2.20;0.60;;;10.50;99.90;;;;;;4953511;28;20067;-80
2023/05/01 06:25:03;;;;;;;1.35;0.93;;;10.70;99.90;;;;;;4954150;28;20058;-80
2023/05/01 06:27:28;;;;;;;0.52;0.43;;;10.80;99.90;;;;;;4954117;28;20040;-80
2023/05/01 06:29:54;;;;;;;0.20;0.20;;;11.10;99.90;;;;;;4970040;28;20143;-80
2023/05/01 06:32:20;;;;;;;0.52;0.52;;;11.30;99.90;;;;;;4974949;28;20051;-81
2023/05/01 06:34:45;;;;;;;0.45;0.30;;;11.60;99.90;;;;;;4970624;28;20055;-81
2023/05/01 06:37:11;;;;;;;0.40;0.40;;;11.80;1.00;;;;;;4959230;28;20088;-81
2023/05/01 06:39:37;;;;;;;3.05;0.85;;;12.40;1.00;;;;;;4956074;28;20539;-81
2023/05/01 06:42:03;;;;;;;0.68;0.60;;;12.80;1.00;;;;;;4968030;28;20058;-80
2023/05/01 06:44:29;;;;;;;0.77;0.70;;;12.80;99.90;;;;;;4967603;28;20043;-81
2023/05/01 06:46:55;;;;;;;0.57;0.45;;;13.30;1.00;;;;;;4960205;28;20602;-81
2023/05/01 06:49:22;;;;;;;0.77;0.55;;;13.00;99.90;;;;;;5000397;28;20047;-81
2023/05/01 06:51:47;;;;;;;0.70;0.57;;;12.80;1.00;;;;;;4969708;28;20076;-81
2023/05/01 06:54:13;;;;;;;0.90;0.82;;;12.90;99.90;;;;;;4969674;28;20051;-81
2023/05/01 06:56:39;;;;;;;3.70;0.35;;;13.00;99.90;;;;;;4969887;28;20147;-81
2023/05/01 06:59:04;;;;;;;0.68;0.50;;;13.30;1.00;;;;;;4967220;28;20160;-81
2023/05/01 07:01:30;;;;;;;1.88;1.10;;;13.50;99.90;;;;;;4969135;28;20512;-81
2023/05/01 07:03:56;;;;;;;3.30;1.25;;;14.00;99.90;;;;;;4968876;28;20103;-82
2023/05/01 07:06:22;;;;;;;1.75;1.02;;;14.20;99.90;;;;;;4969238;28;20240;-82
2023/05/01 07:08:47;;;;;;;2.78;1.45;;;14.80;99.90;;;;;;4968650;28;20039;-82
2023/05/01 07:11:13;;;;;;;0.43;0.30;;;15.20;99.90;;;;;;4969484;28;20431;-82
2023/05/01 07:13:39;;;;;;;1.20;0.85;;;16.50;99.90;;;;;;4969533;28;20047;-82
2023/05/01 07:16:05;;;;;;;0.28;0.28;;;16.30;99.90;;;;;;4969687;28;20488;-82
2023/05/01 07:18:31;;;;;;;0.40;0.25;;;17.10;99.90;;;;;;4968955;28;20063;-82
2023/05/01 07:20:57;;;;;;;0.20;0.20;;;17.80;99.90;;;;;;4968875;28;20501;-82
2023/05/01 07:23:24;;;;;;;0.40;0.20;;;18.10;99.90;;;;;;4968938;28;20051;-82
2023/05/01 07:25:50;;;;;;;0.05;0.05;;;18.80;99.90;;;;;;4969208;28;20108;-82
2023/05/01 07:28:18;;;;;;;0.60;0.60;;;18.40;99.90;;;;;;4969967;28;20562;-82
2023/05/01 07:30:43;;;;;;;1.02;0.90;;;17.60;99.90;;;;;;4967016;28;20059;-82
2023/05/01 07:33:10;;;;;;;4.55;0.80;;;17.80;99.90;;;;;;4969826;28;20050;-82
2023/05/01 07:35:36;;;;;;;0.90;0.75;;;17.80;99.90;;;;;;4968354;28;20054;-82
2023/05/01 07:38:01;;;;;;;1.65;0.52;;;17.00;99.90;;;;;;4970100;28;20136;-83
2023/05/01 07:40:27;;;;;;;1.17;0.35;;;17.20;99.90;;;;;;4984118;28;20045;-83
2023/05/01 07:42:53;;;;;;;1.83;0.65;;;17.70;99.90;;;;;;4970318;28;20042;-83
2023/05/01 07:45:19;;;;;;;0.20;0.15;;;18.90;99.90;;;;;;4970157;28;20660;-83
2023/05/01 07:47:44;;;;;;;0.40;0.40;;;18.80;99.90;;;;;;4969589;28;20058;-83
2023/05/01 07:50:12;;;;;;;0.90;0.47;;;18.90;99.90;;;;;;4971321;28;20074;-83
2023/05/01 07:52:38;;;;;;;0.98;0.75;;;19.20;99.90;;;;;;4971653;28;20096;-83
2023/05/01 07:55:04;;;;;;;0.55;0.38;;;19.10;99.90;;;;;;4977848;28;20039;-83
2023/05/01 07:57:32;;;;;;;2.25;1.25;;;18.40;99.90;;;;;;4984090;28;20059;-82
2023/05/01 07:59:58;;;;;;;0.47;0.30;;;18.80;99.90;;;;;;4985354;28;20031;-82
2023/05/01 08:02:24;;;;;;;0.30;0.30;;;18.00;99.90;;;;;;4985434;28;20038;-83
2023/05/01 08:04:49;;;;;;;0.75;0.73;;;18.90;99.90;;;;;;4985380;28;20034;-83
2023/05/01 08:07:15;;;;;;;1.45;0.25;;;19.30;99.90;;;;;;4984956;28;20043;-83
2023/05/01 08:09:41;;;;;;;1.55;0.57;;;19.80;99.90;;;;;;4981727;28;20050;-83
2023/05/01 08:12:06;;;;;;;0.35;0.35;;;20.10;99.90;;;;;;5003633;28;20051;-83
2023/05/01 08:14:32;;;;;;;0.65;0.43;;;19.70;99.90;;;;;;4972122;28;20055;-83
2023/05/01 08:16:58;;;;;;;2.42;0.55;;;20.40;99.90;;;;;;4971321;28;20263;-83
2023/05/01 08:19:25;;;;;;;2.03;0.80;;;20.30;99.90;;;;;;4972886;28;20080;-83
2023/05/01 08:21:51;;;;;;;0.32;0.32;;;20.70;99.90;;;;;;4968964;28;20063;-82
2023/05/01 08:24:17;;;;;;;0.65;0.52;;;20.80;99.90;;;;;;4968988;28;20058;-82
2023/05/01 08:26:43;;;;;;;1.55;0.70;;;21.40;99.90;;;;;;4968677;28;20562;-83
2023/05/01 08:29:09;;;;;;;0.10;0.10;;;21.50;99.90;;;;;;4968212;28;20047;-82
2023/05/01 08:31:36;;;;;;;0.25;0.25;;;21.50;99.90;;;;;;4968969;28;20520;-82
2023/05/01 08:34:02;;;;;;;0.20;0.17;;;22.10;99.90;;;;;;4967631;28;20057;-82
2023/05/01 08:36:28;;;;;;;1.70;1.13;;;22.30;99.90;;;;;;4964500;28;20544;-82
2023/05/01 08:38:54;;;;;;;0.08;0.08;;;22.70;99.90;;;;;;4965214;28;20099;-82
2023/05/01 08:41:21;;;;;;;0.00;0.00;;;23.40;99.90;;;;;;4965651;28;20134;-83
2023/05/01 08:43:47;;;;;;;0.00;0.00;;;22.80;99.90;;;;;;4965390;28;20121;-82
2023/05/01 08:46:23;;;;;;;0.13;0.10;;;22.80;99.90;;;;;;4965871;28;20054;-82
2023/05/01 08:48:50;;;;;;;0.40;0.40;;;23.00;99.90;;;;;;4965107;28;20059;-82
2023/05/01 08:51:18;;;;;;;0.22;0.22;;;23.20;99.90;;;;;;4964742;28;20352;-82
2023/05/01 08:53:49;;;;;;;0.20;0.17;;;23.60;99.90;;;;;;4964772;28;20086;-82
2023/05/01 08:56:16;;;;;;;0.52;0.30;;;24.00;99.90;;;;;;4965060;28;20055;-82
2023/05/01 08:58:44;;;;;;;5.47;1.25;;;23.90;99.90;;;;;;4964701;28;20144;-83
2023/05/01 09:01:14;;;;;;;0.25;0.17;;;23.90;99.90;;;;;;4966347;28;20338;-82
2023/05/01 09:03:41;;;;;;;0.35;0.25;;;24.70;99.90;;;;;;4964661;28;20552;-82
2023/05/01 09:06:08;;;;;;;5.28;1.75;;;24.90;99.90;;;;;;4965115;28;20061;-82
2023/05/01 09:08:33;;;;;;;0.70;0.47;;;24.30;99.90;;;;;;4963273;28;20641;-82
2023/05/01 09:11:00;;;;;;;0.20;0.20;;;23.30;99.90;;;;;;4965194;28;20082;-82
2023/05/01 09:13:26;;;;;;;0.47;0.43;;;23.70;99.90;;;;;;4993655;28;20377;-83
2023/05/01 09:15:52;;;;;;;1.85;1.10;;;23.50;99.90;;;;;;4961784;28;20054;-83
2023/05/01 09:18:17;;;;;;;0.57;0.57;;;23.50;99.90;;;;;;4963016;28;20078;-82
2023/05/01 09:20:43;;;;;;;0.55;0.47;;;24.10;99.90;;;;;;4961790;28;20488;-83
2023/05/01 09:23:08;;;;;;;1.45;0.65;;;24.20;99.90;;;;;;4964994;28;20097;-83
2023/05/01 09:25:34;;;;;;;0.10;0.10;;;25.20;99.90;;;;;;4966475;28;20102;-83
2023/05/01 09:28:03;;;;;;;1.35;0.40;;;24.80;99.90;;;;;;4966729;28;20445;-83
2023/05/01 09:30:33;;;;;;;1.27;0.75;;;24.30;99.90;;;;;;4965334;28;20073;-83
2023/05/01 09:33:12;;;;;;;0.22;0.22;;;24.20;99.90;;;;;;4965591;28;20063;-83
2023/05/01 09:35:53;;;;;;;0.30;0.05;;;24.00;99.90;;;;;;4967192;28;20051;-83
2023/05/01 09:38:20;;;;;;;0.20;0.15;;;24.60;99.90;;;;;;4965851;28;20046;-83
2023/05/01 09:40:46;;;;;;;0.65;0.55;;;25.00;99.90;;;;;;4965257;28;20055;-83
2023/05/01 09:43:12;;;;;;;4.07;0.75;;;25.00;99.90;;;;;;4995082;28;20108;-83
2023/05/01 09:45:38;;;;;;;0.20;0.10;;;25.30;99.90;;;;;;4964134;28;20051;-83
2023/05/01 09:48:11;;;;;;;0.43;0.25;;;25.00;99.90;;;;;;4964551;28;20086;-83
2023/05/01 09:50:40;;;;;;;0.10;0.10;;;25.10;99.90;;;;;;4964178;28;20050;-83
2023/05/01 09:53:06;;;;;;;1.13;0.57;;;24.20;99.90;;;;;;4964850;28;20086;-83
2023/05/01 09:55:33;;;;;;;0.40;0.22;;;24.40;99.90;;;;;;4963919;28;20082;-83
2023/05/01 09:57:58;;;;;;;0.80;0.75;;;23.50;99.90;;;;;;4964370;28;20474;-83
2023/05/01 10:00:25;;;;;;;0.82;0.52;;;23.40;98.90;;;;;;4965461;28;20122;-83
2023/05/01 10:02:51;;;;;;;0.52;0.52;;;23.20;83.70;;;;;;4966682;28;20150;-83
2023/05/01 10:05:18;;;;;;;0.25;0.20;;;22.50;85.20;;;;;;4964353;28;20100;-83
2023/05/01 10:07:58;;;;;;;0.50;0.50;;;22.30;62.00;;;;;;4963865;28;20116;-83
2023/05/01 10:10:24;;;;;;;0.55;0.30;;;22.10;65.80;;;;;;4969048;28;20092;-83
2023/05/01 10:12:50;;;;;;;0.13;0.13;;;22.00;55.00;;;;;;4969153;28;20051;-83
2023/05/01 10:15:16;;;;;;;1.23;0.63;;;21.80;50.20;;;;;;4964972;28;20120;-83
2023/05/01 10:17:43;;;;;;;0.47;0.35;;;21.50;39.60;;;;;;4963728;28;20472;-83
2023/05/01 10:20:11;;;;;;;0.30;0.30;;;21.70;42.10;;;;;;4995142;28;20055;-83
2023/05/01 10:22:37;;;;;;;5.15;0.68;;;21.90;49.00;;;;;;4964567;28;20059;-83
2023/05/01 10:25:07;;;;;;;0.30;0.30;;;22.00;68.40;;;;;;4964217;28;20050;-82
2023/05/01 10:27:35;;;;;;;0.08;0.08;;;22.10;67.60;;;;;;4963195;28;20055;-82
2023/05/01 10:30:06;;;;;;;0.30;0.30;;;22.60;82.10;;;;;;4963809;28;20515;-81
2023/05/01 10:32:32;;;;;;;0.20;0.20;;;22.70;91.80;;;;;;4964347;28;20050;-82
2023/05/01 10:35:08;;;;;;;0.20;0.10;;;23.20;93.80;;;;;;4963124;28;20541;-81
2023/05/01 10:37:57;;;;;;;0.38;0.25;;;23.40;99.90;;;;;;4965000;28;20055;-82
2023/05/01 10:40:38;;;;;;;0.77;0.65;;;23.20;95.60;;;;;;4962176;28;20112;-82
2023/05/01 10:43:12;;;;;;;2.28;0.22;;;22.90;81.10;;;;;;4964551;28;20354;-81
2023/05/01 10:45:37;;;;;;;1.70;0.77;;;22.90;77.80;;;;;;4963787;28;20500;-81
2023/05/01 10:48:03;;;;;;;0.05;0.05;;;22.70;65.10;;;;;;4965109;28;20533;-81
2023/05/01 10:50:29;;;;;;;0.63;0.63;;;22.80;73.90;;;;;;4994411;28;20403;-81
2023/05/01 10:53:14;;;;;;;0.40;0.20;;;23.00;70.60;;;;;;4964106;28;20051;-81
2023/05/01 10:55:45;;;;;;;0.05;0.05;;;22.80;68.00;;;;;;4968948;28;20055;-81
2023/05/01 10:58:13;;;;;;;1.17;0.75;;;23.00;68.40;;;;;;4966128;28;20611;-81
2023/05/01 11:00:39;;;;;;;0.20;0.20;;;23.10;72.90;;;;;;4964916;28;20099;-81
2023/05/01 11:03:20;;;;;;;0.00;0.00;;;23.10;66.40;;;;;;4964568;28;20054;-81
2023/05/01 11:06:04;;;;;;;0.10;0.10;;;23.20;72.80;;;;;;4963964;28;20069;-81
2023/05/01 11:08:34;;;;;;;0.28;0.22;;;23.20;69.70;;;;;;4965429;28;20043;-82
2023/05/01 11:11:18;;;;;;;0.20;0.20;;;23.00;55.80;;;;;;4964113;28;20055;-81
2023/05/01 11:14:07;;;;;;;0.08;0.08;;;22.20;37.10;;;;;;4962831;28;20050;-81
2023/05/01 11:16:36;;;;;;;0.22;0.22;;;22.10;34.40;;;;;;4962812;28;20054;-81
2023/05/01 11:19:06;;;;;;;0.10;0.10;;;22.40;38.40;;;;;;4962791;28;20112;-81
2023/05/01 11:21:33;;;;;;;0.45;0.28;;;22.80;46.20;;;;;;4962758;28;20058;-84
2023/05/01 11:23:59;;;;;;;0.00;0.00;;;22.50;35.10;;;;;;4961585;28;20050;-85
2023/05/01 11:26:27;;;;;;;0.00;0.00;;;22.50;34.50;;;;;;4964908;28;20558;-81
2023/05/01 11:28:55;;;;;;;0.60;0.38;;;22.50;27.50;;;;;;4964552;28;20126;-81
2023/05/01 11:31:21;;;;;;;0.77;0.30;;;22.60;33.50;;;;;;4962632;28;20073;-82
2023/05/01 11:33:48;;;;;;;0.20;0.10;;;23.20;57.40;;;;;;4961381;28;20055;-82
2023/05/01 11:36:13;;;;;;;0.00;0.00;;;23.60;59.80;;;;;;4992423;28;20047;-82
2023/05/01 11:38:50;;;;;;;0.00;0.00;;;24.00;69.60;;;;;;4961911;28;20104;-82
2023/05/01 11:41:22;;;;;;;0.45;0.30;;;24.40;89.70;;;;;;4961497;28;20054;-82
2023/05/01 11:43:58;;;;;;;0.00;0.00;;;24.60;74.10;;;;;;4961884;28;20051;-81
2023/05/01 11:46:29;;;;;;;0.00;0.00;;;24.60;62.80;;;;;;4961075;28;20078;-83
2023/05/01 11:49:03;;;;;;;0.10;0.10;;;25.30;78.60;;;;;;4961957;28;20112;-82
2023/05/01 11:51:29;;;;;;;0.20;0.17;;;26.00;90.30;;;;;;4962218;28;20125;-82
2023/05/01 11:54:05;;;;;;;0.00;0.00;;;26.10;76.00;;;;;;4962943;28;20467;-81
2023/05/01 11:56:32;;;;;;;0.85;0.20;;;25.50;64.60;;;;;;4962389;28;20043;-82
2023/05/01 11:59:08;;;;;;;0.00;0.00;;;26.40;76.10;;;;;;4961658;28;20061;-82
2023/05/01 12:01:36;;;;;;;0.17;0.13;;;26.70;72.10;;;;;;4961434;28;20750;-83
2023/05/01 12:04:02;;;;;;;0.00;0.00;;;26.40;63.10;;;;;;4961065;28;20050;-82
2023/05/01 12:06:44;;;;;;;0.88;0.22;;;25.60;30.00;;;;;;4962024;28;20105;-82
2023/05/01 12:09:19;;;;;;;0.03;0.03;;;25.30;30.50;;;;;;4962785;28;20051;-82
2023/05/01 12:11:46;;;;;;;0.20;0.20;;;24.60;10.20;;;;;;4961585;28;20062;-83
2023/05/01 12:14:14;;;;;;;0.10;0.10;;;24.40;7.60;;;;;;4962525;28;20066;-83
2023/05/01 12:16:41;;;;;;;0.10;0.10;;;23.80;1.00;;;;;;4962424;28;20133;-83
2023/05/01 12:19:07;;;;;;;0.00;0.00;;;23.80;1.00;;;;;;4962448;28;20113;-83
2023/05/01 12:21:35;;;;;;;0.00;0.00;;;23.80;1.00;;;;;;4963165;28;20170;-84
2023/05/01 12:24:15;;;;;;;0.10;0.08;;;23.40;1.00;;;;;;4964746;28;20051;-84
2023/05/01 12:26:45;;;;;;;0.03;0.00;;;23.80;1.00;;;;;;4962161;28;20564;-84
2023/05/01 12:29:11;;;;;;;0.00;0.00;;;23.50;1.00;;;;;;4962458;28;20560;-84
2023/05/01 12:31:46;;;;;;;0.00;0.00;;;23.50;1.00;;;;;;4961939;28;20389;-84
2023/05/01 12:34:12;;;;;;;0.10;0.10;;;24.20;1.80;;;;;;4962089;28;20055;-85
2023/05/01 12:36:38;;;;;;;0.00;0.00;;;23.90;1.00;;;;;;4961886;28;20453;-84
2023/05/01 12:39:11;;;;;;;0.52;0.22;;;23.70;1.00;;;;;;4962212;28;20042;-83
2023/05/01 12:41:39;;;;;;;0.00;0.00;;;24.10;7.00;;;;;;4961686;28;20057;-83
2023/05/01 12:44:25;;;;;;;0.00;0.00;;;24.30;9.00;;;;;;4961081;28;20101;-83
2023/05/01 12:47:02;;;;;;;0.00;0.00;;;23.70;1.00;;;;;;4960618;28;20148;-83
2023/05/01 12:49:29;;;;;;;0.00;0.00;;;23.70;1.00;;;;;;4961742;28;20188;-83
2023/05/01 12:51:56;;;;;;;0.00;0.00;;;23.40;1.00;;;;;;4961943;28;20043;-83
2023/05/01 12:54:30;;;;;;;0.20;0.13;;;23.10;1.00;;;;;;4962778;28;20047;-84
2023/05/01 12:57:10;;;;;;;1.20;0.88;;;22.70;1.00;;;;;;4963828;28;20169;-83